sensor_id;sensor_type;location;lat;lon;timestamp;temperature;humidity
54461;DHT22;40371;49.414;11.010;2022-08-01T00:00:33;22.00;97.70
54461;DHT22;40371;49.414;11.010;2022-08-01T00:02:59;22.10;97.80
54461;DHT22;40371;49.414;11.010;2022-08-01T00:05:24;22.00;97.70
54461;DHT22;40371;49.414;11.010;2022-08-01T00:07:50;22.00;97.90
54461;DHT22;40371;49.414;11.010;2022-08-01T00:10:17;22.10;97.80
54461;DHT22;40371;49.414;11.010;2022-08-01T00:12:43;22.10;97.90
54461;DHT22;40371;49.414;11.010;2022-08-01T00:15:11;22.00;98.00
54461;DHT22;40371;49.414;11.010;2022-08-01T00:17:37;21.90;97.90
54461;DHT22;40371;49.414;11.010;2022-08-01T00:20:05;21.90;98.30
54461;DHT22;40371;49.414;11.010;2022-08-01T00:22:32;21.90;98.30
54461;DHT22;40371;49.414;11.010;2022-08-01T00:25:04;21.80;97.70
54461;DHT22;40371;49.414;11.010;2022-08-01T00:28:03;21.80;97.70
54461;DHT22;40371;49.414;11.010;2022-08-01T00:30:29;21.90;97.60
54461;DHT22;40371;49.414;11.010;2022-08-01T00:32:55;21.80;97.60
54461;DHT22;40371;49.414;11.010;2022-08-01T00:35:20;21.80;97.60
54461;DHT22;40371;49.414;11.010;2022-08-01T00:37:46;21.70;97.70
54461;DHT22;40371;49.414;11.010;2022-08-01T00:40:11;21.70;97.80
54461;DHT22;40371;49.414;11.010;2022-08-01T00:42:37;21.70;97.90
54461;DHT22;40371;49.414;11.010;2022-08-01T00:45:03;21.70;98.10
54461;DHT22;40371;49.414;11.010;2022-08-01T00:47:29;21.60;98.20
54461;DHT22;40371;49.414;11.010;2022-08-01T00:49:55;21.50;98.30
54461;DHT22;40371;49.414;11.010;2022-08-01T00:52:21;21.50;98.40
54461;DHT22;40371;49.414;11.010;2022-08-01T00:54:46;21.50;98.60
54461;DHT22;40371;49.414;11.010;2022-08-01T00:57:13;21.50;98.70
54461;DHT22;40371;49.414;11.010;2022-08-01T00:59:39;21.60;98.80
54461;DHT22;40371;49.414;11.010;2022-08-01T01:02:05;21.60;98.70
54461;DHT22;40371;49.414;11.010;2022-08-01T01:04:31;21.50;98.80
54461;DHT22;40371;49.414;11.010;2022-08-01T01:07:07;21.50;98.80
54461;DHT22;40371;49.414;11.010;2022-08-01T01:17:41;21.50;98.70
54461;DHT22;40371;49.414;11.010;2022-08-01T01:20:12;21.60;98.70
54461;DHT22;40371;49.414;11.010;2022-08-01T01:25:46;21.50;98.70
54461;DHT22;40371;49.414;11.010;2022-08-01T01:28:40;21.60;99.10
54461;DHT22;40371;49.414;11.010;2022-08-01T01:31:10;21.60;98.70
54461;DHT22;40371;49.414;11.010;2022-08-01T01:33:39;21.50;98.90
54461;DHT22;40371;49.414;11.010;2022-08-01T01:36:09;21.50;99.10
54461;DHT22;40371;49.414;11.010;2022-08-01T01:38:39;21.50;99.20
54461;DHT22;40371;49.414;11.010;2022-08-01T01:41:08;21.40;99.30
54461;DHT22;40371;49.414;11.010;2022-08-01T01:43:35;21.50;99.20
54461;DHT22;40371;49.414;11.010;2022-08-01T01:46:03;21.50;99.30
54461;DHT22;40371;49.414;11.010;2022-08-01T01:48:31;21.60;99.10
54461;DHT22;40371;49.414;11.010;2022-08-01T01:50:58;21.60;99.10
54461;DHT22;40371;49.414;11.010;2022-08-01T01:53:27;21.60;99.10
54461;DHT22;40371;49.414;11.010;2022-08-01T01:55:55;21.70;99.40
54461;DHT22;40371;49.414;11.010;2022-08-01T01:58:22;21.70;99.40
54461;DHT22;40371;49.414;11.010;2022-08-01T02:00:51;21.70;99.90
54461;DHT22;40371;49.414;11.010;2022-08-01T02:03:18;21.70;99.40
54461;DHT22;40371;49.414;11.010;2022-08-01T02:05:45;21.70;99.60
54461;DHT22;40371;49.414;11.010;2022-08-01T02:08:15;21.70;99.60
54461;DHT22;40371;49.414;11.010;2022-08-01T02:10:42;21.70;99.80
54461;DHT22;40371;49.414;11.010;2022-08-01T02:13:32;21.70;99.80
54461;DHT22;40371;49.414;11.010;2022-08-01T02:15:59;21.70;99.90
54461;DHT22;40371;49.414;11.010;2022-08-01T02:18:25;21.70;99.90
54461;DHT22;40371;49.414;11.010;2022-08-01T02:20:52;21.70;99.90
54461;DHT22;40371;49.414;11.010;2022-08-01T02:23:20;21.70;99.90
54461;DHT22;40371;49.414;11.010;2022-08-01T02:25:50;21.70;99.90
54461;DHT22;40371;49.414;11.010;2022-08-01T02:28:21;21.80;99.90
54461;DHT22;40371;49.414;11.010;2022-08-01T02:30:50;21.70;99.90
54461;DHT22;40371;49.414;11.010;2022-08-01T02:33:18;21.70;99.90
54461;DHT22;40371;49.414;11.010;2022-08-01T02:35:48;21.70;99.90
54461;DHT22;40371;49.414;11.010;2022-08-01T02:38:15;21.70;99.90
54461;DHT22;40371;49.414;11.010;2022-08-01T02:40:45;21.60;99.90
54461;DHT22;40371;49.414;11.010;2022-08-01T02:43:12;21.60;99.90
54461;DHT22;40371;49.414;11.010;2022-08-01T02:45:45;21.60;99.90
54461;DHT22;40371;49.414;11.010;2022-08-01T02:48:14;21.50;99.90
54461;DHT22;40371;49.414;11.010;2022-08-01T02:50:43;21.50;99.90
54461;DHT22;40371;49.414;11.010;2022-08-01T02:53:12;21.40;99.90
54461;DHT22;40371;49.414;11.010;2022-08-01T02:55:39;21.50;99.90
54461;DHT22;40371;49.414;11.010;2022-08-01T02:58:07;21.40;99.90
54461;DHT22;40371;49.414;11.010;2022-08-01T03:00:34;21.50;99.90
54461;DHT22;40371;49.414;11.010;2022-08-01T03:03:01;21.30;99.90
54461;DHT22;40371;49.414;11.010;2022-08-01T03:05:30;21.30;99.90
54461;DHT22;40371;49.414;11.010;2022-08-01T03:07:59;21.30;99.90
54461;DHT22;40371;49.414;11.010;2022-08-01T03:10:27;21.20;99.90
54461;DHT22;40371;49.414;11.010;2022-08-01T03:12:54;21.20;99.90
54461;DHT22;40371;49.414;11.010;2022-08-01T03:15:23;21.20;99.90
54461;DHT22;40371;49.414;11.010;2022-08-01T03:17:51;21.20;99.90
54461;DHT22;40371;49.414;11.010;2022-08-01T03:20:19;21.20;99.90
54461;DHT22;40371;49.414;11.010;2022-08-01T03:22:46;21.10;99.90
54461;DHT22;40371;49.414;11.010;2022-08-01T03:25:15;21.10;99.90
54461;DHT22;40371;49.414;11.010;2022-08-01T03:27:50;20.90;99.90
54461;DHT22;40371;49.414;11.010;2022-08-01T03:30:17;20.90;99.90
54461;DHT22;40371;49.414;11.010;2022-08-01T03:32:43;20.80;99.90
54461;DHT22;40371;49.414;11.010;2022-08-01T03:35:08;20.80;99.90
54461;DHT22;40371;49.414;11.010;2022-08-01T03:40:20;20.60;99.90
54461;DHT22;40371;49.414;11.010;2022-08-01T03:42:49;20.40;99.90
54461;DHT22;40371;49.414;11.010;2022-08-01T03:45:39;20.40;99.90
54461;DHT22;40371;49.414;11.010;2022-08-01T03:48:10;20.40;99.90
54461;DHT22;40371;49.414;11.010;2022-08-01T03:50:37;20.60;99.90
54461;DHT22;40371;49.414;11.010;2022-08-01T03:53:06;20.60;99.90
54461;DHT22;40371;49.414;11.010;2022-08-01T03:55:33;20.60;99.90
54461;DHT22;40371;49.414;11.010;2022-08-01T03:58:00;20.60;99.90
54461;DHT22;40371;49.414;11.010;2022-08-01T04:00:26;20.60;99.90
54461;DHT22;40371;49.414;11.010;2022-08-01T04:02:53;20.60;99.90
54461;DHT22;40371;49.414;11.010;2022-08-01T04:05:18;20.60;99.90
54461;DHT22;40371;49.414;11.010;2022-08-01T04:07:49;20.50;99.90
54461;DHT22;40371;49.414;11.010;2022-08-01T04:10:22;20.60;99.90
54461;DHT22;40371;49.414;11.010;2022-08-01T04:12:48;20.50;99.90
54461;DHT22;40371;49.414;11.010;2022-08-01T04:15:14;20.40;99.90
54461;DHT22;40371;49.414;11.010;2022-08-01T04:17:39;20.30;99.90
54461;DHT22;40371;49.414;11.010;2022-08-01T04:20:05;20.50;99.90
54461;DHT22;40371;49.414;11.010;2022-08-01T04:22:31;20.70;99.90
54461;DHT22;40371;49.414;11.010;2022-08-01T04:24:58;20.70;99.90
54461;DHT22;40371;49.414;11.010;2022-08-01T04:27:30;20.60;99.90
54461;DHT22;40371;49.414;11.010;2022-08-01T04:29:58;20.60;99.90
54461;DHT22;40371;49.414;11.010;2022-08-01T04:32:26;20.60;99.90
54461;DHT22;40371;49.414;11.010;2022-08-01T04:34:54;20.80;99.90
54461;DHT22;40371;49.414;11.010;2022-08-01T04:37:22;20.80;99.90
54461;DHT22;40371;49.414;11.010;2022-08-01T04:39:49;20.70;99.90
54461;DHT22;40371;49.414;11.010;2022-08-01T04:42:17;20.80;99.90
54461;DHT22;40371;49.414;11.010;2022-08-01T04:44:44;20.80;99.90
54461;DHT22;40371;49.414;11.010;2022-08-01T04:47:10;20.80;99.90
54461;DHT22;40371;49.414;11.010;2022-08-01T04:49:36;20.80;99.90
54461;DHT22;40371;49.414;11.010;2022-08-01T04:52:02;20.90;99.90
54461;DHT22;40371;49.414;11.010;2022-08-01T04:54:30;20.90;99.90
54461;DHT22;40371;49.414;11.010;2022-08-01T04:56:57;20.90;99.90
54461;DHT22;40371;49.414;11.010;2022-08-01T04:59:26;21.00;99.90
54461;DHT22;40371;49.414;11.010;2022-08-01T05:02:09;21.00;99.90
54461;DHT22;40371;49.414;11.010;2022-08-01T05:04:35;21.20;99.90
54461;DHT22;40371;49.414;11.010;2022-08-01T05:07:01;21.10;99.90
54461;DHT22;40371;49.414;11.010;2022-08-01T05:09:27;21.20;99.90
54461;DHT22;40371;49.414;11.010;2022-08-01T05:11:53;21.30;99.90
54461;DHT22;40371;49.414;11.010;2022-08-01T05:14:18;21.20;99.90
54461;DHT22;40371;49.414;11.010;2022-08-01T05:16:45;21.20;99.90
54461;DHT22;40371;49.414;11.010;2022-08-01T05:19:11;21.30;99.90
54461;DHT22;40371;49.414;11.010;2022-08-01T05:21:36;21.40;99.90
54461;DHT22;40371;49.414;11.010;2022-08-01T05:24:04;21.40;99.90
54461;DHT22;40371;49.414;11.010;2022-08-01T05:26:29;21.50;99.90
54461;DHT22;40371;49.414;11.010;2022-08-01T05:28:55;21.50;99.90
54461;DHT22;40371;49.414;11.010;2022-08-01T05:31:20;21.50;99.90
54461;DHT22;40371;49.414;11.010;2022-08-01T05:33:46;21.50;99.90
54461;DHT22;40371;49.414;11.010;2022-08-01T05:36:12;21.60;99.90
54461;DHT22;40371;49.414;11.010;2022-08-01T05:38:37;21.70;99.90
54461;DHT22;40371;49.414;11.010;2022-08-01T05:41:03;21.70;99.90
54461;DHT22;40371;49.414;11.010;2022-08-01T05:43:28;21.80;99.90
54461;DHT22;40371;49.414;11.010;2022-08-01T05:45:54;21.80;99.90
54461;DHT22;40371;49.414;11.010;2022-08-01T05:48:20;21.80;99.90
54461;DHT22;40371;49.414;11.010;2022-08-01T05:50:45;21.90;99.90
54461;DHT22;40371;49.414;11.010;2022-08-01T05:53:13;21.90;99.90
54461;DHT22;40371;49.414;11.010;2022-08-01T05:55:39;22.00;99.90
54461;DHT22;40371;49.414;11.010;2022-08-01T05:58:04;22.00;99.90
54461;DHT22;40371;49.414;11.010;2022-08-01T06:00:30;22.00;99.90
54461;DHT22;40371;49.414;11.010;2022-08-01T06:02:56;22.00;99.90
54461;DHT22;40371;49.414;11.010;2022-08-01T06:05:21;22.00;99.90
54461;DHT22;40371;49.414;11.010;2022-08-01T06:07:47;22.20;99.90
54461;DHT22;40371;49.414;11.010;2022-08-01T06:10:12;22.40;99.90
54461;DHT22;40371;49.414;11.010;2022-08-01T06:12:38;22.40;99.90
54461;DHT22;40371;49.414;11.010;2022-08-01T06:15:05;22.50;99.90
54461;DHT22;40371;49.414;11.010;2022-08-01T06:17:31;22.50;99.90
54461;DHT22;40371;49.414;11.010;2022-08-01T06:19:56;22.40;99.90
54461;DHT22;40371;49.414;11.010;2022-08-01T06:22:22;22.40;99.90
54461;DHT22;40371;49.414;11.010;2022-08-01T06:24:48;22.50;99.90
54461;DHT22;40371;49.414;11.010;2022-08-01T06:27:13;22.70;99.90
54461;DHT22;40371;49.414;11.010;2022-08-01T06:29:39;22.90;99.90
54461;DHT22;40371;49.414;11.010;2022-08-01T06:32:04;22.90;99.90
54461;DHT22;40371;49.414;11.010;2022-08-01T06:34:32;22.90;99.90
54461;DHT22;40371;49.414;11.010;2022-08-01T06:36:58;22.90;99.90
54461;DHT22;40371;49.414;11.010;2022-08-01T06:39:23;22.90;99.90
54461;DHT22;40371;49.414;11.010;2022-08-01T06:41:49;23.00;99.90
54461;DHT22;40371;49.414;11.010;2022-08-01T06:44:14;23.20;99.90
54461;DHT22;40371;49.414;11.010;2022-08-01T06:46:40;23.20;99.90
54461;DHT22;40371;49.414;11.010;2022-08-01T06:49:05;23.20;99.90
54461;DHT22;40371;49.414;11.010;2022-08-01T06:51:31;23.20;99.90
54461;DHT22;40371;49.414;11.010;2022-08-01T06:53:56;23.20;99.90
54461;DHT22;40371;49.414;11.010;2022-08-01T06:56:22;23.50;99.90
54461;DHT22;40371;49.414;11.010;2022-08-01T06:58:52;23.60;99.90
54461;DHT22;40371;49.414;11.010;2022-08-01T07:01:17;23.40;99.90
54461;DHT22;40371;49.414;11.010;2022-08-01T07:03:43;23.60;99.90
54461;DHT22;40371;49.414;11.010;2022-08-01T07:06:08;23.70;99.90
54461;DHT22;40371;49.414;11.010;2022-08-01T07:08:35;23.80;99.90
54461;DHT22;40371;49.414;11.010;2022-08-01T07:11:00;23.80;99.90
54461;DHT22;40371;49.414;11.010;2022-08-01T07:13:27;23.90;99.90
54461;DHT22;40371;49.414;11.010;2022-08-01T07:15:53;23.90;99.90
54461;DHT22;40371;49.414;11.010;2022-08-01T07:18:19;24.00;99.90
54461;DHT22;40371;49.414;11.010;2022-08-01T07:20:45;24.30;99.90
54461;DHT22;40371;49.414;11.010;2022-08-01T07:23:12;24.50;99.90
54461;DHT22;40371;49.414;11.010;2022-08-01T07:25:38;24.60;99.90
54461;DHT22;40371;49.414;11.010;2022-08-01T07:28:03;24.70;99.90
54461;DHT22;40371;49.414;11.010;2022-08-01T07:30:30;24.70;99.90
54461;DHT22;40371;49.414;11.010;2022-08-01T07:32:55;24.80;99.90
54461;DHT22;40371;49.414;11.010;2022-08-01T07:35:21;25.00;99.90
54461;DHT22;40371;49.414;11.010;2022-08-01T07:37:47;25.10;99.90
54461;DHT22;40371;49.414;11.010;2022-08-01T07:40:13;25.20;99.90
54461;DHT22;40371;49.414;11.010;2022-08-01T07:42:39;25.20;99.90
54461;DHT22;40371;49.414;11.010;2022-08-01T07:45:09;25.40;99.90
54461;DHT22;40371;49.414;11.010;2022-08-01T07:47:35;25.40;99.90
54461;DHT22;40371;49.414;11.010;2022-08-01T07:50:01;25.50;99.90
54461;DHT22;40371;49.414;11.010;2022-08-01T07:52:27;25.50;99.90
54461;DHT22;40371;49.414;11.010;2022-08-01T07:54:53;25.40;99.90
54461;DHT22;40371;49.414;11.010;2022-08-01T07:57:18;25.60;99.90
54461;DHT22;40371;49.414;11.010;2022-08-01T07:59:44;25.50;99.90
54461;DHT22;40371;49.414;11.010;2022-08-01T08:02:10;25.50;99.90
54461;DHT22;40371;49.414;11.010;2022-08-01T08:04:35;25.50;99.90
54461;DHT22;40371;49.414;11.010;2022-08-01T08:07:01;25.50;99.90
54461;DHT22;40371;49.414;11.010;2022-08-01T08:09:27;25.60;99.90
54461;DHT22;40371;49.414;11.010;2022-08-01T08:11:52;25.90;99.90
54461;DHT22;40371;49.414;11.010;2022-08-01T08:14:18;26.30;99.90
54461;DHT22;40371;49.414;11.010;2022-08-01T08:16:44;26.70;99.90
54461;DHT22;40371;49.414;11.010;2022-08-01T08:19:11;27.00;99.90
54461;DHT22;40371;49.414;11.010;2022-08-01T08:21:37;27.50;99.90
54461;DHT22;40371;49.414;11.010;2022-08-01T08:24:03;27.20;99.90
54461;DHT22;40371;49.414;11.010;2022-08-01T08:26:49;26.70;99.90
54461;DHT22;40371;49.414;11.010;2022-08-01T08:29:15;26.60;99.90
54461;DHT22;40371;49.414;11.010;2022-08-01T08:31:41;26.60;99.90
54461;DHT22;40371;49.414;11.010;2022-08-01T08:34:07;26.40;99.90
54461;DHT22;40371;49.414;11.010;2022-08-01T08:36:33;26.20;99.90
54461;DHT22;40371;49.414;11.010;2022-08-01T08:38:59;26.50;99.90
54461;DHT22;40371;49.414;11.010;2022-08-01T08:41:32;26.30;99.90
54461;DHT22;40371;49.414;11.010;2022-08-01T08:43:57;26.10;99.90
54461;DHT22;40371;49.414;11.010;2022-08-01T08:46:26;26.40;99.90
54461;DHT22;40371;49.414;11.010;2022-08-01T08:48:52;27.50;99.90
54461;DHT22;40371;49.414;11.010;2022-08-01T08:51:18;28.00;99.40
54461;DHT22;40371;49.414;11.010;2022-08-01T08:53:46;27.80;99.20
54461;DHT22;40371;49.414;11.010;2022-08-01T08:56:13;27.60;99.20
54461;DHT22;40371;49.414;11.010;2022-08-01T08:58:41;26.90;99.30
54461;DHT22;40371;49.414;11.010;2022-08-01T09:01:08;26.60;99.90
54461;DHT22;40371;49.414;11.010;2022-08-01T09:03:35;27.40;99.90
54461;DHT22;40371;49.414;11.010;2022-08-01T09:06:01;28.70;97.60
54461;DHT22;40371;49.414;11.010;2022-08-01T09:08:27;27.40;98.00
54461;DHT22;40371;49.414;11.010;2022-08-01T09:10:52;26.80;99.40
54461;DHT22;40371;49.414;11.010;2022-08-01T09:13:18;28.20;98.50
54461;DHT22;40371;49.414;11.010;2022-08-01T09:15:48;28.40;96.90
54461;DHT22;40371;49.414;11.010;2022-08-01T09:18:35;27.60;97.80
54461;DHT22;40371;49.414;11.010;2022-08-01T09:21:08;27.10;98.80
54461;DHT22;40371;49.414;11.010;2022-08-01T09:23:40;26.80;99.10
54461;DHT22;40371;49.414;11.010;2022-08-01T09:26:09;26.60;99.00
54461;DHT22;40371;49.414;11.010;2022-08-01T09:28:34;26.50;99.00
54461;DHT22;40371;49.414;11.010;2022-08-01T09:31:06;30.70;96.00
54461;DHT22;40371;49.414;11.010;2022-08-01T09:33:55;32.70;92.10
54461;DHT22;40371;49.414;11.010;2022-08-01T09:36:23;31.80;89.10
54461;DHT22;40371;49.414;11.010;2022-08-01T09:38:50;29.50;91.80
54461;DHT22;40371;49.414;11.010;2022-08-01T09:41:16;28.20;92.90
54461;DHT22;40371;49.414;11.010;2022-08-01T09:43:48;27.60;94.20
54461;DHT22;40371;49.414;11.010;2022-08-01T09:46:14;29.40;94.00
54461;DHT22;40371;49.414;11.010;2022-08-01T09:49:03;33.50;90.10
54461;DHT22;40371;49.414;11.010;2022-08-01T09:51:37;32.90;83.70
54461;DHT22;40371;49.414;11.010;2022-08-01T09:54:05;32.20;85.70
54461;DHT22;40371;49.414;11.010;2022-08-01T09:56:41;31.10;86.30
54461;DHT22;40371;49.414;11.010;2022-08-01T09:59:08;31.90;87.90
54461;DHT22;40371;49.414;11.010;2022-08-01T10:01:46;35.00;82.20
54461;DHT22;40371;49.414;11.010;2022-08-01T10:04:16;36.80;76.00
54461;DHT22;40371;49.414;11.010;2022-08-01T10:06:47;36.20;74.30
54461;DHT22;40371;49.414;11.010;2022-08-01T10:09:30;37.40;72.60
54461;DHT22;40371;49.414;11.010;2022-08-01T10:11:58;37.10;71.70
54461;DHT22;40371;49.414;11.010;2022-08-01T10:14:28;35.10;70.50
54461;DHT22;40371;49.414;11.010;2022-08-01T10:16:56;34.90;73.50
54461;DHT22;40371;49.414;11.010;2022-08-01T10:19:23;34.80;72.00
54461;DHT22;40371;49.414;11.010;2022-08-01T10:21:51;34.60;74.80
54461;DHT22;40371;49.414;11.010;2022-08-01T10:24:22;36.10;70.80
54461;DHT22;40371;49.414;11.010;2022-08-01T10:26:51;35.60;70.80
54461;DHT22;40371;49.414;11.010;2022-08-01T10:29:18;33.20;73.50
54461;DHT22;40371;49.414;11.010;2022-08-01T10:31:46;33.70;74.00
54461;DHT22;40371;49.414;11.010;2022-08-01T10:34:13;33.10;73.90
54461;DHT22;40371;49.414;11.010;2022-08-01T10:36:42;32.70;74.70
54461;DHT22;40371;49.414;11.010;2022-08-01T10:39:11;33.50;73.80
54461;DHT22;40371;49.414;11.010;2022-08-01T10:41:38;34.30;72.10
54461;DHT22;40371;49.414;11.010;2022-08-01T10:44:06;35.20;69.40
54461;DHT22;40371;49.414;11.010;2022-08-01T10:46:34;33.90;70.20
54461;DHT22;40371;49.414;11.010;2022-08-01T10:49:11;33.40;70.10
54461;DHT22;40371;49.414;11.010;2022-08-01T10:51:38;32.50;71.30
54461;DHT22;40371;49.414;11.010;2022-08-01T10:54:05;33.00;72.70
54461;DHT22;40371;49.414;11.010;2022-08-01T10:56:42;32.60;72.60
54461;DHT22;40371;49.414;11.010;2022-08-01T10:59:09;32.40;73.70
54461;DHT22;40371;49.414;11.010;2022-08-01T11:01:34;32.60;72.30
54461;DHT22;40371;49.414;11.010;2022-08-01T11:06:48;31.30;75.80
54461;DHT22;40371;49.414;11.010;2022-08-01T11:14:20;35.20;68.40
54461;DHT22;40371;49.414;11.010;2022-08-01T11:16:46;37.80;64.20
54461;DHT22;40371;49.414;11.010;2022-08-01T11:19:11;36.00;65.00
54461;DHT22;40371;49.414;11.010;2022-08-01T11:27:20;36.30;65.10
54461;DHT22;40371;49.414;11.010;2022-08-01T11:32:31;33.90;66.60
54461;DHT22;40371;49.414;11.010;2022-08-01T11:34:56;34.40;66.90
54461;DHT22;40371;49.414;11.010;2022-08-01T11:37:23;34.80;67.30
54461;DHT22;40371;49.414;11.010;2022-08-01T11:42:33;37.30;62.10
54461;DHT22;40371;49.414;11.010;2022-08-01T11:44:58;37.60;60.10
54461;DHT22;40371;49.414;11.010;2022-08-01T11:47:43;36.60;61.40
54461;DHT22;40371;49.414;11.010;2022-08-01T11:53:10;34.00;63.80
54461;DHT22;40371;49.414;11.010;2022-08-01T11:55:46;32.70;67.40
54461;DHT22;40371;49.414;11.010;2022-08-01T11:58:13;32.50;68.10
54461;DHT22;40371;49.414;11.010;2022-08-01T12:00:39;32.90;68.10
54461;DHT22;40371;49.414;11.010;2022-08-01T12:03:06;32.90;67.80
54461;DHT22;40371;49.414;11.010;2022-08-01T12:05:34;33.20;67.00
54461;DHT22;40371;49.414;11.010;2022-08-01T12:08:02;33.00;67.30
54461;DHT22;40371;49.414;11.010;2022-08-01T12:10:33;32.40;68.80
54461;DHT22;40371;49.414;11.010;2022-08-01T12:13:04;33.30;67.10
54461;DHT22;40371;49.414;11.010;2022-08-01T12:15:33;32.30;68.40
54461;DHT22;40371;49.414;11.010;2022-08-01T12:18:00;31.60;69.50
54461;DHT22;40371;49.414;11.010;2022-08-01T12:20:28;31.20;70.40
54461;DHT22;40371;49.414;11.010;2022-08-01T12:22:56;30.60;72.70
54461;DHT22;40371;49.414;11.010;2022-08-01T12:25:22;30.30;73.30
54461;DHT22;40371;49.414;11.010;2022-08-01T12:27:48;30.30;73.50
54461;DHT22;40371;49.414;11.010;2022-08-01T12:30:19;30.10;73.70
54461;DHT22;40371;49.414;11.010;2022-08-01T12:32:48;29.80;74.60
54461;DHT22;40371;49.414;11.010;2022-08-01T12:35:22;29.80;74.90
54461;DHT22;40371;49.414;11.010;2022-08-01T12:37:50;29.70;76.00
54461;DHT22;40371;49.414;11.010;2022-08-01T12:42:46;30.30;76.40
54461;DHT22;40371;49.414;11.010;2022-08-01T12:45:14;30.50;75.60
54461;DHT22;40371;49.414;11.010;2022-08-01T12:47:41;30.80;74.70
54461;DHT22;40371;49.414;11.010;2022-08-01T12:50:15;30.70;74.90
54461;DHT22;40371;49.414;11.010;2022-08-01T12:52:42;30.80;74.30
54461;DHT22;40371;49.414;11.010;2022-08-01T12:55:12;30.10;75.30
54461;DHT22;40371;49.414;11.010;2022-08-01T12:57:43;30.00;76.10
54461;DHT22;40371;49.414;11.010;2022-08-01T13:00:16;29.70;76.40
54461;DHT22;40371;49.414;11.010;2022-08-01T13:02:44;29.80;76.70
54461;DHT22;40371;49.414;11.010;2022-08-01T13:05:13;29.80;76.70
54461;DHT22;40371;49.414;11.010;2022-08-01T13:07:48;29.60;77.20
54461;DHT22;40371;49.414;11.010;2022-08-01T13:10:15;29.50;77.90
54461;DHT22;40371;49.414;11.010;2022-08-01T13:12:54;29.70;77.50
54461;DHT22;40371;49.414;11.010;2022-08-01T13:15:29;29.50;77.70
54461;DHT22;40371;49.414;11.010;2022-08-01T13:18:21;30.00;77.30
54461;DHT22;40371;49.414;11.010;2022-08-01T13:20:46;30.40;76.40
54461;DHT22;40371;49.414;11.010;2022-08-01T13:23:17;30.70;75.90
54461;DHT22;40371;49.414;11.010;2022-08-01T13:25:54;30.70;74.90
54461;DHT22;40371;49.414;11.010;2022-08-01T13:28:24;30.30;75.50
54461;DHT22;40371;49.414;11.010;2022-08-01T13:31:01;30.50;75.50
54461;DHT22;40371;49.414;11.010;2022-08-01T13:33:40;30.10;74.90
54461;DHT22;40371;49.414;11.010;2022-08-01T13:36:07;30.30;75.50
54461;DHT22;40371;49.414;11.010;2022-08-01T13:38:32;29.90;74.80
54461;DHT22;40371;49.414;11.010;2022-08-01T13:41:17;29.90;76.00
54461;DHT22;40371;49.414;11.010;2022-08-01T13:43:42;30.10;76.20
54461;DHT22;40371;49.414;11.010;2022-08-01T13:46:08;30.10;74.10
54461;DHT22;40371;49.414;11.010;2022-08-01T13:48:34;29.90;73.60
54461;DHT22;40371;49.414;11.010;2022-08-01T13:51:00;29.70;74.50
54461;DHT22;40371;49.414;11.010;2022-08-01T13:53:26;29.80;74.30
54461;DHT22;40371;49.414;11.010;2022-08-01T13:55:52;29.70;74.30
54461;DHT22;40371;49.414;11.010;2022-08-01T13:58:17;29.50;74.90
54461;DHT22;40371;49.414;11.010;2022-08-01T14:00:43;29.60;76.00
54461;DHT22;40371;49.414;11.010;2022-08-01T14:03:09;29.80;75.70
54461;DHT22;40371;49.414;11.010;2022-08-01T14:05:36;29.70;76.00
54461;DHT22;40371;49.414;11.010;2022-08-01T14:08:02;29.90;75.70
54461;DHT22;40371;49.414;11.010;2022-08-01T14:10:27;30.00;76.00
54461;DHT22;40371;49.414;11.010;2022-08-01T14:12:54;30.10;76.50
54461;DHT22;40371;49.414;11.010;2022-08-01T14:15:20;30.20;76.00
54461;DHT22;40371;49.414;11.010;2022-08-01T14:17:45;30.30;75.20
54461;DHT22;40371;49.414;11.010;2022-08-01T14:20:11;30.50;75.30
54461;DHT22;40371;49.414;11.010;2022-08-01T14:22:36;30.30;75.50
54461;DHT22;40371;49.414;11.010;2022-08-01T14:25:02;30.10;76.00
54461;DHT22;40371;49.414;11.010;2022-08-01T14:27:28;29.80;76.30
54461;DHT22;40371;49.414;11.010;2022-08-01T14:29:56;29.50;75.80
54461;DHT22;40371;49.414;11.010;2022-08-01T14:32:22;29.30;76.10
54461;DHT22;40371;49.414;11.010;2022-08-01T14:34:47;29.30;76.40
54461;DHT22;40371;49.414;11.010;2022-08-01T14:37:13;29.40;75.90
54461;DHT22;40371;49.414;11.010;2022-08-01T14:39:38;29.40;75.40
54461;DHT22;40371;49.414;11.010;2022-08-01T14:42:04;29.60;74.90
54461;DHT22;40371;49.414;11.010;2022-08-01T14:44:30;29.40;75.10
54461;DHT22;40371;49.414;11.010;2022-08-01T14:46:55;29.30;76.00
54461;DHT22;40371;49.414;11.010;2022-08-01T14:49:21;29.20;75.40
54461;DHT22;40371;49.414;11.010;2022-08-01T14:51:46;29.10;75.40
54461;DHT22;40371;49.414;11.010;2022-08-01T14:54:12;29.30;75.30
54461;DHT22;40371;49.414;11.010;2022-08-01T14:56:38;29.40;75.70
54461;DHT22;40371;49.414;11.010;2022-08-01T14:59:04;29.50;75.50
54461;DHT22;40371;49.414;11.010;2022-08-01T15:01:29;29.30;75.40
54461;DHT22;40371;49.414;11.010;2022-08-01T15:03:55;29.30;75.10
54461;DHT22;40371;49.414;11.010;2022-08-01T15:06:21;29.40;75.70
54461;DHT22;40371;49.414;11.010;2022-08-01T15:08:47;29.60;75.30
54461;DHT22;40371;49.414;11.010;2022-08-01T15:11:12;29.70;75.10
54461;DHT22;40371;49.414;11.010;2022-08-01T15:13:38;29.70;74.90
54461;DHT22;40371;49.414;11.010;2022-08-01T15:16:04;29.60;75.00
54461;DHT22;40371;49.414;11.010;2022-08-01T15:18:29;29.40;75.20
54461;DHT22;40371;49.414;11.010;2022-08-01T15:20:55;29.30;75.30
54461;DHT22;40371;49.414;11.010;2022-08-01T15:23:23;29.50;75.40
54461;DHT22;40371;49.414;11.010;2022-08-01T15:25:49;29.40;74.20
54461;DHT22;40371;49.414;11.010;2022-08-01T15:28:14;29.20;73.90
54461;DHT22;40371;49.414;11.010;2022-08-01T15:30:40;28.80;74.70
54461;DHT22;40371;49.414;11.010;2022-08-01T15:33:06;28.80;75.40
54461;DHT22;40371;49.414;11.010;2022-08-01T15:35:32;29.00;75.40
54461;DHT22;40371;49.414;11.010;2022-08-01T15:37:58;29.00;75.60
54461;DHT22;40371;49.414;11.010;2022-08-01T15:40:23;28.80;76.40
54461;DHT22;40371;49.414;11.010;2022-08-01T15:42:49;28.80;76.40
54461;DHT22;40371;49.414;11.010;2022-08-01T15:45:15;28.80;77.00
54461;DHT22;40371;49.414;11.010;2022-08-01T15:47:43;28.80;76.60
54461;DHT22;40371;49.414;11.010;2022-08-01T15:50:09;28.90;76.50
54461;DHT22;40371;49.414;11.010;2022-08-01T15:52:35;28.90;76.80
54461;DHT22;40371;49.414;11.010;2022-08-01T15:55:01;29.10;76.40
54461;DHT22;40371;49.414;11.010;2022-08-01T15:57:26;29.20;76.50